sensor_id;sensor_type;location;lat;lon;timestamp;temperature;humidity
40257;DHT22;25977;45.462;9.210;2023-07-29T00:00:42;26.30;81.50
40257;DHT22;25977;45.462;9.210;2023-07-29T00:03:08;26.30;81.30
40257;DHT22;25977;45.462;9.210;2023-07-29T00:05:34;26.30;81.70
40257;DHT22;25977;45.462;9.210;2023-07-29T00:07:59;26.30;81.50
40257;DHT22;25977;45.462;9.210;2023-07-29T00:10:26;26.20;81.80
40257;DHT22;25977;45.462;9.210;2023-07-29T00:12:51;26.30;81.90
40257;DHT22;25977;45.462;9.210;2023-07-29T00:15:18;26.30;81.80
40257;DHT22;25977;45.462;9.210;2023-07-29T00:17:43;26.20;82.10
40257;DHT22;25977;45.462;9.210;2023-07-29T00:20:09;26.20;81.90
40257;DHT22;25977;45.462;9.210;2023-07-29T00:22:35;26.30;81.80
40257;DHT22;25977;45.462;9.210;2023-07-29T00:25:00;26.30;82.00
40257;DHT22;25977;45.462;9.210;2023-07-29T00:27:26;26.30;81.90
40257;DHT22;25977;45.462;9.210;2023-07-29T00:29:52;26.30;81.90
40257;DHT22;25977;45.462;9.210;2023-07-29T00:32:18;26.30;81.80
40257;DHT22;25977;45.462;9.210;2023-07-29T00:34:44;26.40;81.90
40257;DHT22;25977;45.462;9.210;2023-07-29T00:37:10;26.30;81.90
40257;DHT22;25977;45.462;9.210;2023-07-29T00:39:37;26.30;82.00
40257;DHT22;25977;45.462;9.210;2023-07-29T00:42:04;26.20;82.20
40257;DHT22;25977;45.462;9.210;2023-07-29T00:44:30;26.20;82.20
40257;DHT22;25977;45.462;9.210;2023-07-29T00:47:02;26.20;82.20
40257;DHT22;25977;45.462;9.210;2023-07-29T00:49:28;26.30;82.30
40257;DHT22;25977;45.462;9.210;2023-07-29T00:51:54;26.30;82.30
40257;DHT22;25977;45.462;9.210;2023-07-29T00:54:19;26.20;82.40
40257;DHT22;25977;45.462;9.210;2023-07-29T00:56:45;26.20;82.40
40257;DHT22;25977;45.462;9.210;2023-07-29T00:59:11;26.30;82.60
40257;DHT22;25977;45.462;9.210;2023-07-29T01:01:38;26.20;82.60
40257;DHT22;25977;45.462;9.210;2023-07-29T01:04:04;26.20;82.80
40257;DHT22;25977;45.462;9.210;2023-07-29T01:06:49;26.20;82.80
40257;DHT22;25977;45.462;9.210;2023-07-29T01:12:22;26.20;82.90
40257;DHT22;25977;45.462;9.210;2023-07-29T01:15:16;26.20;83.00
40257;DHT22;25977;45.462;9.210;2023-07-29T01:17:52;26.20;83.00
40257;DHT22;25977;45.462;9.210;2023-07-29T01:20:21;26.20;83.10
40257;DHT22;25977;45.462;9.210;2023-07-29T01:22:50;26.20;83.20
40257;DHT22;25977;45.462;9.210;2023-07-29T01:25:16;26.20;83.30
40257;DHT22;25977;45.462;9.210;2023-07-29T01:27:48;26.20;83.40
40257;DHT22;25977;45.462;9.210;2023-07-29T01:30:17;26.20;83.40
40257;DHT22;25977;45.462;9.210;2023-07-29T01:35:36;26.20;83.50
40257;DHT22;25977;45.462;9.210;2023-07-29T01:38:13;26.20;83.50
40257;DHT22;25977;45.462;9.210;2023-07-29T01:40:40;26.10;83.40
40257;DHT22;25977;45.462;9.210;2023-07-29T01:43:06;26.10;83.50
40257;DHT22;25977;45.462;9.210;2023-07-29T01:45:35;26.10;83.40
40257;DHT22;25977;45.462;9.210;2023-07-29T01:48:07;26.10;83.40
40257;DHT22;25977;45.462;9.210;2023-07-29T01:50:34;25.80;83.50
40257;DHT22;25977;45.462;9.210;2023-07-29T01:53:00;25.90;83.60
40257;DHT22;25977;45.462;9.210;2023-07-29T01:55:26;25.90;83.40
40257;DHT22;25977;45.462;9.210;2023-07-29T01:57:53;25.90;83.30
40257;DHT22;25977;45.462;9.210;2023-07-29T02:00:21;25.90;83.70
40257;DHT22;25977;45.462;9.210;2023-07-29T02:02:46;25.80;83.40
40257;DHT22;25977;45.462;9.210;2023-07-29T02:05:12;25.80;83.60
40257;DHT22;25977;45.462;9.210;2023-07-29T02:07:38;25.80;83.50
40257;DHT22;25977;45.462;9.210;2023-07-29T02:10:04;25.80;83.60
40257;DHT22;25977;45.462;9.210;2023-07-29T02:12:30;25.90;83.70
40257;DHT22;25977;45.462;9.210;2023-07-29T02:14:55;25.90;83.50
40257;DHT22;25977;45.462;9.210;2023-07-29T02:17:21;25.90;83.50
40257;DHT22;25977;45.462;9.210;2023-07-29T02:19:47;25.90;83.60
40257;DHT22;25977;45.462;9.210;2023-07-29T02:22:16;26.00;83.60
40257;DHT22;25977;45.462;9.210;2023-07-29T02:24:42;25.90;83.60
40257;DHT22;25977;45.462;9.210;2023-07-29T02:27:08;25.90;83.60
40257;DHT22;25977;45.462;9.210;2023-07-29T02:29:34;25.90;83.60
40257;DHT22;25977;45.462;9.210;2023-07-29T02:32:00;25.90;83.70
40257;DHT22;25977;45.462;9.210;2023-07-29T02:34:26;25.90;83.70
40257;DHT22;25977;45.462;9.210;2023-07-29T02:36:52;26.10;84.70
40257;DHT22;25977;45.462;9.210;2023-07-29T02:39:18;26.00;84.10
40257;DHT22;25977;45.462;9.210;2023-07-29T02:41:44;26.00;84.10
40257;DHT22;25977;45.462;9.210;2023-07-29T02:44:09;25.90;84.40
40257;DHT22;25977;45.462;9.210;2023-07-29T02:46:35;25.80;84.70
40257;DHT22;25977;45.462;9.210;2023-07-29T02:49:02;25.80;84.60
40257;DHT22;25977;45.462;9.210;2023-07-29T02:51:29;25.90;84.80
40257;DHT22;25977;45.462;9.210;2023-07-29T02:53:55;25.80;84.90
40257;DHT22;25977;45.462;9.210;2023-07-29T02:56:21;25.80;85.10
40257;DHT22;25977;45.462;9.210;2023-07-29T02:58:46;25.80;85.30
40257;DHT22;25977;45.462;9.210;2023-07-29T03:01:13;25.80;85.30
40257;DHT22;25977;45.462;9.210;2023-07-29T03:03:39;25.80;85.40
40257;DHT22;25977;45.462;9.210;2023-07-29T03:06:07;25.90;85.40
40257;DHT22;25977;45.462;9.210;2023-07-29T03:08:33;25.90;85.40
40257;DHT22;25977;45.462;9.210;2023-07-29T03:11:08;25.90;85.70
40257;DHT22;25977;45.462;9.210;2023-07-29T03:13:34;25.90;85.80
40257;DHT22;25977;45.462;9.210;2023-07-29T03:16:16;25.90;85.90
40257;DHT22;25977;45.462;9.210;2023-07-29T03:18:49;25.90;86.00
40257;DHT22;25977;45.462;9.210;2023-07-29T03:21:15;25.80;86.50
40257;DHT22;25977;45.462;9.210;2023-07-29T03:23:40;25.80;86.70
40257;DHT22;25977;45.462;9.210;2023-07-29T03:26:06;25.80;86.50
40257;DHT22;25977;45.462;9.210;2023-07-29T03:28:42;25.80;86.90
40257;DHT22;25977;45.462;9.210;2023-07-29T03:31:08;25.80;86.70
40257;DHT22;25977;45.462;9.210;2023-07-29T03:33:34;25.80;86.60
40257;DHT22;25977;45.462;9.210;2023-07-29T03:36:00;25.90;86.80
40257;DHT22;25977;45.462;9.210;2023-07-29T03:38:26;25.90;86.80
40257;DHT22;25977;45.462;9.210;2023-07-29T03:40:53;25.90;86.90
40257;DHT22;25977;45.462;9.210;2023-07-29T03:43:19;25.90;86.90
40257;DHT22;25977;45.462;9.210;2023-07-29T03:45:45;25.80;87.00
40257;DHT22;25977;45.462;9.210;2023-07-29T03:48:11;25.90;87.20
40257;DHT22;25977;45.462;9.210;2023-07-29T03:50:37;25.80;87.60
40257;DHT22;25977;45.462;9.210;2023-07-29T03:53:03;25.80;87.50
40257;DHT22;25977;45.462;9.210;2023-07-29T03:55:29;25.80;87.50
40257;DHT22;25977;45.462;9.210;2023-07-29T03:57:57;25.80;87.70
40257;DHT22;25977;45.462;9.210;2023-07-29T04:00:23;25.80;87.70
40257;DHT22;25977;45.462;9.210;2023-07-29T04:02:49;25.80;87.70
40257;DHT22;25977;45.462;9.210;2023-07-29T04:05:14;25.80;87.70
40257;DHT22;25977;45.462;9.210;2023-07-29T04:07:40;25.80;87.80
40257;DHT22;25977;45.462;9.210;2023-07-29T04:10:07;25.80;87.80
40257;DHT22;25977;45.462;9.210;2023-07-29T04:12:33;25.80;88.00
40257;DHT22;25977;45.462;9.210;2023-07-29T04:14:58;25.80;88.10
40257;DHT22;25977;45.462;9.210;2023-07-29T04:17:24;25.80;88.10
40257;DHT22;25977;45.462;9.210;2023-07-29T04:19:50;25.80;88.20
40257;DHT22;25977;45.462;9.210;2023-07-29T04:22:17;25.70;88.80
40257;DHT22;25977;45.462;9.210;2023-07-29T04:24:42;25.70;88.70
40257;DHT22;25977;45.462;9.210;2023-07-29T04:27:08;25.80;88.60
40257;DHT22;25977;45.462;9.210;2023-07-29T04:29:35;25.80;88.70
40257;DHT22;25977;45.462;9.210;2023-07-29T04:32:04;25.70;89.00
40257;DHT22;25977;45.462;9.210;2023-07-29T04:34:30;25.60;89.10
40257;DHT22;25977;45.462;9.210;2023-07-29T04:36:55;25.60;89.10
40257;DHT22;25977;45.462;9.210;2023-07-29T04:39:21;25.60;89.40
40257;DHT22;25977;45.462;9.210;2023-07-29T04:41:47;25.60;89.40
40257;DHT22;25977;45.462;9.210;2023-07-29T04:44:14;25.70;89.30
40257;DHT22;25977;45.462;9.210;2023-07-29T04:46:39;25.70;89.10
40257;DHT22;25977;45.462;9.210;2023-07-29T04:49:05;25.70;89.20
40257;DHT22;25977;45.462;9.210;2023-07-29T04:51:31;25.70;89.40
40257;DHT22;25977;45.462;9.210;2023-07-29T04:53:58;25.60;89.60
40257;DHT22;25977;45.462;9.210;2023-07-29T04:56:23;25.60;89.30
40257;DHT22;25977;45.462;9.210;2023-07-29T04:58:49;25.70;89.20
40257;DHT22;25977;45.462;9.210;2023-07-29T05:01:15;25.80;89.00
40257;DHT22;25977;45.462;9.210;2023-07-29T05:03:40;25.80;88.90
40257;DHT22;25977;45.462;9.210;2023-07-29T05:06:07;25.90;88.70
40257;DHT22;25977;45.462;9.210;2023-07-29T05:08:32;25.90;88.40
40257;DHT22;25977;45.462;9.210;2023-07-29T05:10:58;26.00;88.30
40257;DHT22;25977;45.462;9.210;2023-07-29T05:13:24;26.10;88.10
40257;DHT22;25977;45.462;9.210;2023-07-29T05:15:50;26.10;87.90
40257;DHT22;25977;45.462;9.210;2023-07-29T05:18:16;26.20;87.70
40257;DHT22;25977;45.462;9.210;2023-07-29T05:20:42;26.30;87.30
40257;DHT22;25977;45.462;9.210;2023-07-29T05:23:09;26.40;87.00
40257;DHT22;25977;45.462;9.210;2023-07-29T05:25:35;26.50;86.80
40257;DHT22;25977;45.462;9.210;2023-07-29T05:28:01;26.60;86.60
40257;DHT22;25977;45.462;9.210;2023-07-29T05:30:28;26.90;86.40
40257;DHT22;25977;45.462;9.210;2023-07-29T05:32:57;27.60;85.30
40257;DHT22;25977;45.462;9.210;2023-07-29T05:35:23;28.60;82.90
40257;DHT22;25977;45.462;9.210;2023-07-29T05:37:48;29.60;80.30
40257;DHT22;25977;45.462;9.210;2023-07-29T05:40:14;30.60;78.00
40257;DHT22;25977;45.462;9.210;2023-07-29T05:42:40;31.40;76.10
40257;DHT22;25977;45.462;9.210;2023-07-29T05:45:06;32.00;74.70
40257;DHT22;25977;45.462;9.210;2023-07-29T05:47:32;32.50;73.70
40257;DHT22;25977;45.462;9.210;2023-07-29T05:49:58;33.10;72.90
40257;DHT22;25977;45.462;9.210;2023-07-29T05:52:25;33.40;72.10
40257;DHT22;25977;45.462;9.210;2023-07-29T05:54:51;33.70;71.40
40257;DHT22;25977;45.462;9.210;2023-07-29T05:57:16;34.10;71.00
40257;DHT22;25977;45.462;9.210;2023-07-29T05:59:42;34.40;70.20
40257;DHT22;25977;45.462;9.210;2023-07-29T06:02:08;34.70;69.40
40257;DHT22;25977;45.462;9.210;2023-07-29T06:04:34;35.00;68.90
40257;DHT22;25977;45.462;9.210;2023-07-29T06:06:59;35.30;68.70
40257;DHT22;25977;45.462;9.210;2023-07-29T06:09:25;35.50;68.10
40257;DHT22;25977;45.462;9.210;2023-07-29T06:11:51;35.70;67.60
40257;DHT22;25977;45.462;9.210;2023-07-29T06:14:17;35.80;67.40
40257;DHT22;25977;45.462;9.210;2023-07-29T06:16:42;36.10;67.20
40257;DHT22;25977;45.462;9.210;2023-07-29T06:19:10;36.30;66.70
40257;DHT22;25977;45.462;9.210;2023-07-29T06:21:35;36.50;66.30
40257;DHT22;25977;45.462;9.210;2023-07-29T06:24:01;36.60;66.20
40257;DHT22;25977;45.462;9.210;2023-07-29T06:26:27;36.80;66.10
40257;DHT22;25977;45.462;9.210;2023-07-29T06:28:53;36.60;66.30
40257;DHT22;25977;45.462;9.210;2023-07-29T06:31:19;36.80;66.10
40257;DHT22;25977;45.462;9.210;2023-07-29T06:33:45;37.00;65.80
40257;DHT22;25977;45.462;9.210;2023-07-29T06:36:11;37.10;65.50
40257;DHT22;25977;45.462;9.210;2023-07-29T06:38:36;37.20;65.20
40257;DHT22;25977;45.462;9.210;2023-07-29T06:41:04;37.40;65.00
40257;DHT22;25977;45.462;9.210;2023-07-29T06:43:29;37.30;64.40
40257;DHT22;25977;45.462;9.210;2023-07-29T06:45:55;37.20;64.50
40257;DHT22;25977;45.462;9.210;2023-07-29T06:48:21;37.00;64.70
40257;DHT22;25977;45.462;9.210;2023-07-29T06:50:47;36.70;65.00
40257;DHT22;25977;45.462;9.210;2023-07-29T06:53:13;36.50;64.90
40257;DHT22;25977;45.462;9.210;2023-07-29T06:55:38;36.20;65.10
40257;DHT22;25977;45.462;9.210;2023-07-29T06:58:04;35.90;65.40
40257;DHT22;25977;45.462;9.210;2023-07-29T07:00:30;35.60;65.60
40257;DHT22;25977;45.462;9.210;2023-07-29T07:02:56;35.30;65.90
40257;DHT22;25977;45.462;9.210;2023-07-29T07:05:21;34.90;66.60
40257;DHT22;25977;45.462;9.210;2023-07-29T07:07:48;34.50;66.90
40257;DHT22;25977;45.462;9.210;2023-07-29T07:10:14;34.20;67.20
40257;DHT22;25977;45.462;9.210;2023-07-29T07:12:40;33.70;67.70
40257;DHT22;25977;45.462;9.210;2023-07-29T07:15:06;33.50;68.20
40257;DHT22;25977;45.462;9.210;2023-07-29T07:17:32;33.50;68.50
40257;DHT22;25977;45.462;9.210;2023-07-29T07:19:57;33.40;68.40
40257;DHT22;25977;45.462;9.210;2023-07-29T07:22:23;33.30;68.50
40257;DHT22;25977;45.462;9.210;2023-07-29T07:24:49;33.20;68.70
40257;DHT22;25977;45.462;9.210;2023-07-29T07:27:15;33.10;68.80
40257;DHT22;25977;45.462;9.210;2023-07-29T07:29:40;33.10;69.10
40257;DHT22;25977;45.462;9.210;2023-07-29T07:32:06;32.90;69.40
40257;DHT22;25977;45.462;9.210;2023-07-29T07:34:32;32.90;69.70
40257;DHT22;25977;45.462;9.210;2023-07-29T07:36:59;32.90;69.80
40257;DHT22;25977;45.462;9.210;2023-07-29T07:39:24;32.90;69.70
40257;DHT22;25977;45.462;9.210;2023-07-29T07:41:50;32.90;69.70
40257;DHT22;25977;45.462;9.210;2023-07-29T07:44:16;33.00;69.50
40257;DHT22;25977;45.462;9.210;2023-07-29T07:46:43;33.00;69.50
40257;DHT22;25977;45.462;9.210;2023-07-29T07:49:09;33.00;69.40
40257;DHT22;25977;45.462;9.210;2023-07-29T07:51:35;33.00;69.70
40257;DHT22;25977;45.462;9.210;2023-07-29T07:54:00;33.00;69.60
40257;DHT22;25977;45.462;9.210;2023-07-29T07:56:26;33.10;69.50
40257;DHT22;25977;45.462;9.210;2023-07-29T07:58:51;33.00;69.60
40257;DHT22;25977;45.462;9.210;2023-07-29T08:01:17;33.00;69.50
40257;DHT22;25977;45.462;9.210;2023-07-29T08:03:43;32.90;69.50
40257;DHT22;25977;45.462;9.210;2023-07-29T08:06:08;33.00;69.70
40257;DHT22;25977;45.462;9.210;2023-07-29T08:08:34;33.10;69.70
40257;DHT22;25977;45.462;9.210;2023-07-29T08:11:00;33.10;69.70
40257;DHT22;25977;45.462;9.210;2023-07-29T08:13:26;33.10;69.70
40257;DHT22;25977;45.462;9.210;2023-07-29T08:15:52;33.10;69.80
40257;DHT22;25977;45.462;9.210;2023-07-29T08:18:18;33.10;69.80
40257;DHT22;25977;45.462;9.210;2023-07-29T08:20:55;32.90;69.90
40257;DHT22;25977;45.462;9.210;2023-07-29T08:23:24;33.00;70.00
40257;DHT22;25977;45.462;9.210;2023-07-29T08:25:57;32.80;70.00
40257;DHT22;25977;45.462;9.210;2023-07-29T08:28:30;32.80;69.90
40257;DHT22;25977;45.462;9.210;2023-07-29T08:30:56;32.90;69.90
40257;DHT22;25977;45.462;9.210;2023-07-29T08:33:22;32.90;69.70
40257;DHT22;25977;45.462;9.210;2023-07-29T08:35:48;32.90;69.70
40257;DHT22;25977;45.462;9.210;2023-07-29T08:38:14;32.90;69.60
40257;DHT22;25977;45.462;9.210;2023-07-29T08:40:49;32.90;69.70
40257;DHT22;25977;45.462;9.210;2023-07-29T08:43:19;32.90;69.90
40257;DHT22;25977;45.462;9.210;2023-07-29T08:45:45;33.00;70.00
40257;DHT22;25977;45.462;9.210;2023-07-29T08:48:13;33.00;70.00
40257;DHT22;25977;45.462;9.210;2023-07-29T08:50:41;33.00;70.10
40257;DHT22;25977;45.462;9.210;2023-07-29T08:53:08;33.00;70.00
40257;DHT22;25977;45.462;9.210;2023-07-29T08:55:35;32.90;70.10
40257;DHT22;25977;45.462;9.210;2023-07-29T08:58:01;32.90;70.20
40257;DHT22;25977;45.462;9.210;2023-07-29T09:00:28;32.80;70.40
40257;DHT22;25977;45.462;9.210;2023-07-29T09:02:54;32.70;70.50
40257;DHT22;25977;45.462;9.210;2023-07-29T09:05:21;32.60;70.70
40257;DHT22;25977;45.462;9.210;2023-07-29T09:07:48;32.70;70.50
40257;DHT22;25977;45.462;9.210;2023-07-29T09:10:13;32.70;70.50
40257;DHT22;25977;45.462;9.210;2023-07-29T09:12:40;32.40;71.00
40257;DHT22;25977;45.462;9.210;2023-07-29T09:15:06;32.40;71.00
40257;DHT22;25977;45.462;9.210;2023-07-29T09:17:35;32.50;71.00
40257;DHT22;25977;45.462;9.210;2023-07-29T09:20:01;32.50;70.70
40257;DHT22;25977;45.462;9.210;2023-07-29T09:22:27;32.50;70.50
40257;DHT22;25977;45.462;9.210;2023-07-29T09:24:53;32.40;70.60
40257;DHT22;25977;45.462;9.210;2023-07-29T09:27:28;32.30;70.80
40257;DHT22;25977;45.462;9.210;2023-07-29T09:29:57;32.30;71.00
40257;DHT22;25977;45.462;9.210;2023-07-29T09:32:25;32.40;70.90
40257;DHT22;25977;45.462;9.210;2023-07-29T09:34:51;32.50;70.90
40257;DHT22;25977;45.462;9.210;2023-07-29T09:37:20;32.50;70.70
40257;DHT22;25977;45.462;9.210;2023-07-29T09:39:47;32.50;71.00
40257;DHT22;25977;45.462;9.210;2023-07-29T09:42:18;32.40;70.50
40257;DHT22;25977;45.462;9.210;2023-07-29T09:44:44;32.30;71.10
40257;DHT22;25977;45.462;9.210;2023-07-29T09:47:09;32.30;71.30
40257;DHT22;25977;45.462;9.210;2023-07-29T09:49:43;32.40;71.30
40257;DHT22;25977;45.462;9.210;2023-07-29T09:52:09;32.00;71.90
40257;DHT22;25977;45.462;9.210;2023-07-29T09:54:36;32.00;72.20
40257;DHT22;25977;45.462;9.210;2023-07-29T09:57:02;32.00;72.10
40257;DHT22;25977;45.462;9.210;2023-07-29T09:59:28;32.00;71.90
40257;DHT22;25977;45.462;9.210;2023-07-29T10:01:58;31.90;71.90
40257;DHT22;25977;45.462;9.210;2023-07-29T10:04:25;31.70;72.40
40257;DHT22;25977;45.462;9.210;2023-07-29T10:06:52;31.80;72.40
40257;DHT22;25977;45.462;9.210;2023-07-29T10:09:19;31.80;72.30
40257;DHT22;25977;45.462;9.210;2023-07-29T10:11:46;31.80;72.40
40257;DHT22;25977;45.462;9.210;2023-07-29T10:14:12;31.60;72.50
40257;DHT22;25977;45.462;9.210;2023-07-29T10:16:40;31.60;72.90
40257;DHT22;25977;45.462;9.210;2023-07-29T10:19:07;31.60;72.80
40257;DHT22;25977;45.462;9.210;2023-07-29T10:21:34;31.70;72.70
40257;DHT22;25977;45.462;9.210;2023-07-29T10:24:02;31.60;72.20
40257;DHT22;25977;45.462;9.210;2023-07-29T10:26:31;31.60;72.00
40257;DHT22;25977;45.462;9.210;2023-07-29T10:28:59;31.60;72.10
40257;DHT22;25977;45.462;9.210;2023-07-29T10:31:30;31.40;72.60
40257;DHT22;25977;45.462;9.210;2023-07-29T10:33:56;31.40;72.80
40257;DHT22;25977;45.462;9.210;2023-07-29T10:36:22;31.20;73.10
40257;DHT22;25977;45.462;9.210;2023-07-29T10:38:49;31.30;73.60
40257;DHT22;25977;45.462;9.210;2023-07-29T10:41:15;31.40;73.30
40257;DHT22;25977;45.462;9.210;2023-07-29T10:43:41;31.50;72.60
40257;DHT22;25977;45.462;9.210;2023-07-29T10:46:26;31.50;71.90
40257;DHT22;25977;45.462;9.210;2023-07-29T10:48:54;31.50;72.20
40257;DHT22;25977;45.462;9.210;2023-07-29T10:53:58;31.40;72.20
40257;DHT22;25977;45.462;9.210;2023-07-29T10:58:56;31.50;72.20
40257;DHT22;25977;45.462;9.210;2023-07-29T11:01:30;31.60;72.20
40257;DHT22;25977;45.462;9.210;2023-07-29T11:04:27;31.70;70.80
40257;DHT22;25977;45.462;9.210;2023-07-29T11:15:04;31.60;70.50
40257;DHT22;25977;45.462;9.210;2023-07-29T11:17:33;31.60;70.60
40257;DHT22;25977;45.462;9.210;2023-07-29T11:20:03;31.60;71.00
40257;DHT22;25977;45.462;9.210;2023-07-29T11:22:29;31.60;71.30
40257;DHT22;25977;45.462;9.210;2023-07-29T11:24:55;31.70;71.20
40257;DHT22;25977;45.462;9.210;2023-07-29T11:27:21;31.80;71.60
40257;DHT22;25977;45.462;9.210;2023-07-29T11:29:47;31.80;71.90
40257;DHT22;25977;45.462;9.210;2023-07-29T11:32:13;31.80;71.70
40257;DHT22;25977;45.462;9.210;2023-07-29T11:34:40;31.80;71.30
40257;DHT22;25977;45.462;9.210;2023-07-29T11:37:06;31.80;70.60
40257;DHT22;25977;45.462;9.210;2023-07-29T11:39:33;31.90;70.70
40257;DHT22;25977;45.462;9.210;2023-07-29T11:42:00;31.60;70.60
40257;DHT22;25977;45.462;9.210;2023-07-29T11:44:25;31.50;71.20
40257;DHT22;25977;45.462;9.210;2023-07-29T11:46:53;31.60;71.00
40257;DHT22;25977;45.462;9.210;2023-07-29T11:49:19;31.50;71.20
40257;DHT22;25977;45.462;9.210;2023-07-29T11:51:46;31.40;71.50
40257;DHT22;25977;45.462;9.210;2023-07-29T11:54:12;31.50;71.60
40257;DHT22;25977;45.462;9.210;2023-07-29T11:56:38;31.50;71.20
40257;DHT22;25977;45.462;9.210;2023-07-29T11:59:04;31.60;70.30
40257;DHT22;25977;45.462;9.210;2023-07-29T12:01:30;31.60;69.60
40257;DHT22;25977;45.462;9.210;2023-07-29T12:03:57;31.60;69.70
40257;DHT22;25977;45.462;9.210;2023-07-29T12:06:23;31.60;69.10
40257;DHT22;25977;45.462;9.210;2023-07-29T12:08:50;31.60;69.10
40257;DHT22;25977;45.462;9.210;2023-07-29T12:11:16;31.60;69.30
40257;DHT22;25977;45.462;9.210;2023-07-29T12:13:43;31.60;68.50
40257;DHT22;25977;45.462;9.210;2023-07-29T12:16:08;31.60;68.50
40257;DHT22;25977;45.462;9.210;2023-07-29T12:18:36;31.60;67.70
40257;DHT22;25977;45.462;9.210;2023-07-29T12:21:02;31.70;67.40
40257;DHT22;25977;45.462;9.210;2023-07-29T12:23:29;31.70;67.40
40257;DHT22;25977;45.462;9.210;2023-07-29T12:25:59;31.80;67.80
40257;DHT22;25977;45.462;9.210;2023-07-29T12:28:25;31.80;68.30
40257;DHT22;25977;45.462;9.210;2023-07-29T12:30:55;31.70;68.50
40257;DHT22;25977;45.462;9.210;2023-07-29T12:33:47;31.80;68.90
40257;DHT22;25977;45.462;9.210;2023-07-29T12:36:13;31.80;68.90
40257;DHT22;25977;45.462;9.210;2023-07-29T12:38:42;31.90;68.30
40257;DHT22;25977;45.462;9.210;2023-07-29T12:41:08;31.80;67.70
40257;DHT22;25977;45.462;9.210;2023-07-29T12:43:34;31.80;68.00
40257;DHT22;25977;45.462;9.210;2023-07-29T12:46:00;31.80;68.00
40257;DHT22;25977;45.462;9.210;2023-07-29T12:48:26;31.80;67.60
40257;DHT22;25977;45.462;9.210;2023-07-29T12:50:51;31.90;66.80
40257;DHT22;25977;45.462;9.210;2023-07-29T12:53:17;31.90;66.60
40257;DHT22;25977;45.462;9.210;2023-07-29T12:55:43;32.00;66.00
40257;DHT22;25977;45.462;9.210;2023-07-29T12:58:09;32.00;66.60
40257;DHT22;25977;45.462;9.210;2023-07-29T13:00:34;32.10;66.90
40257;DHT22;25977;45.462;9.210;2023-07-29T13:03:00;32.20;67.00
40257;DHT22;25977;45.462;9.210;2023-07-29T13:05:25;32.20;66.90
40257;DHT22;25977;45.462;9.210;2023-07-29T13:07:51;32.10;66.80
40257;DHT22;25977;45.462;9.210;2023-07-29T13:10:23;32.00;67.30
40257;DHT22;25977;45.462;9.210;2023-07-29T13:12:48;32.10;66.70
40257;DHT22;25977;45.462;9.210;2023-07-29T13:15:14;32.20;66.70
40257;DHT22;25977;45.462;9.210;2023-07-29T13:17:40;32.30;66.40
40257;DHT22;25977;45.462;9.210;2023-07-29T13:20:07;32.30;66.50
40257;DHT22;25977;45.462;9.210;2023-07-29T13:22:33;32.30;66.50
40257;DHT22;25977;45.462;9.210;2023-07-29T13:24:58;32.40;66.50
40257;DHT22;25977;45.462;9.210;2023-07-29T13:27:24;32.40;66.70
40257;DHT22;25977;45.462;9.210;2023-07-29T13:29:50;32.50;66.60
40257;DHT22;25977;45.462;9.210;2023-07-29T13:32:16;32.50;66.70
40257;DHT22;25977;45.462;9.210;2023-07-29T13:34:42;32.40;66.70
40257;DHT22;25977;45.462;9.210;2023-07-29T13:37:08;32.40;66.90
40257;DHT22;25977;45.462;9.210;2023-07-29T13:39:33;32.10;67.00
40257;DHT22;25977;45.462;9.210;2023-07-29T13:41:59;32.10;67.40
40257;DHT22;25977;45.462;9.210;2023-07-29T13:44:25;32.20;67.60
40257;DHT22;25977;45.462;9.210;2023-07-29T13:46:50;32.20;67.80
40257;DHT22;25977;45.462;9.210;2023-07-29T13:49:16;32.30;67.90
40257;DHT22;25977;45.462;9.210;2023-07-29T13:51:42;32.40;67.90
40257;DHT22;25977;45.462;9.210;2023-07-29T13:54:08;32.50;67.80
40257;DHT22;25977;45.462;9.210;2023-07-29T13:56:33;32.60;67.70
40257;DHT22;25977;45.462;9.210;2023-07-29T13:58:59;32.70;67.30
40257;DHT22;25977;45.462;9.210;2023-07-29T14:01:25;32.70;67.20
40257;DHT22;25977;45.462;9.210;2023-07-29T14:03:50;32.90;67.40
40257;DHT22;25977;45.462;9.210;2023-07-29T14:06:16;32.40;67.90
40257;DHT22;25977;45.462;9.210;2023-07-29T14:08:42;32.40;67.60
40257;DHT22;25977;45.462;9.210;2023-07-29T14:11:07;32.40;68.30
40257;DHT22;25977;45.462;9.210;2023-07-29T14:13:33;32.20;68.30
40257;DHT22;25977;45.462;9.210;2023-07-29T14:16:02;32.10;68.00
40257;DHT22;25977;45.462;9.210;2023-07-29T14:18:28;32.10;67.70
40257;DHT22;25977;45.462;9.210;2023-07-29T14:20:54;32.10;68.00
40257;DHT22;25977;45.462;9.210;2023-07-29T14:23:20;32.10;68.20
40257;DHT22;25977;45.462;9.210;2023-07-29T14:25:45;32.10;68.60
40257;DHT22;25977;45.462;9.210;2023-07-29T14:28:13;32.10;68.60
40257;DHT22;25977;45.462;9.210;2023-07-29T14:30:39;32.20;68.60
40257;DHT22;25977;45.462;9.210;2023-07-29T14:33:06;32.20;68.50
40257;DHT22;25977;45.462;9.210;2023-07-29T14:35:32;32.20;68.50
40257;DHT22;25977;45.462;9.210;2023-07-29T14:37:58;32.10;68.60
40257;DHT22;25977;45.462;9.210;2023-07-29T14:40:24;31.90;69.00
40257;DHT22;25977;45.462;9.210;2023-07-29T14:42:49;32.00;69.10
40257;DHT22;25977;45.462;9.210;2023-07-29T14:45:15;31.80;68.60
40257;DHT22;25977;45.462;9.210;2023-07-29T14:47:40;31.80;68.30
40257;DHT22;25977;45.462;9.210;2023-07-29T14:50:06;31.90;68.30
40257;DHT22;25977;45.462;9.210;2023-07-29T14:52:32;31.90;68.20
40257;DHT22;25977;45.462;9.210;2023-07-29T14:54:58;31.90;68.20
40257;DHT22;25977;45.462;9.210;2023-07-29T14:57:23;32.00;67.80
40257;DHT22;25977;45.462;9.210;2023-07-29T14:59:49;32.10;67.50
40257;DHT22;25977;45.462;9.210;2023-07-29T15:02:14;32.10;67.30
40257;DHT22;25977;45.462;9.210;2023-07-29T15:04:40;32.20;67.50
40257;DHT22;25977;45.462;9.210;2023-07-29T15:07:06;32.10;67.50
40257;DHT22;25977;45.462;9.210;2023-07-29T15:09:31;32.10;67.10
40257;DHT22;25977;45.462;9.210;2023-07-29T15:11:57;32.10;66.90
40257;DHT22;25977;45.462;9.210;2023-07-29T15:14:23;32.00;66.50
40257;DHT22;25977;45.462;9.210;2023-07-29T15:16:48;32.10;66.80
40257;DHT22;25977;45.462;9.210;2023-07-29T15:19:14;32.00;66.70
40257;DHT22;25977;45.462;9.210;2023-07-29T15:21:40;32.00;66.60
40257;DHT22;25977;45.462;9.210;2023-07-29T15:24:05;32.00;66.40
40257;DHT22;25977;45.462;9.210;2023-07-29T15:26:31;32.00;66.90
40257;DHT22;25977;45.462;9.210;2023-07-29T15:29:00;32.00;67.20
40257;DHT22;25977;45.462;9.210;2023-07-29T15:31:25;32.10;67.30
40257;DHT22;25977;45.462;9.210;2023-07-29T15:33:51;32.00;67.20
40257;DHT22;25977;45.462;9.210;2023-07-29T15:36:17;32.00;67.20
40257;DHT22;25977;45.462;9.210;2023-07-29T15:38:43;32.00;66.90
40257;DHT22;25977;45.462;9.210;2023-07-29T15:41:08;32.00;66.80
40257;DHT22;25977;45.462;9.210;2023-07-29T15:43:34;32.00;66.70
40257;DHT22;25977;45.462;9.210;2023-07-29T15:46:00;31.90;66.50